Time;durP1;ratioP1;P1;durP2;ratioP2;P2;SDS_P1;SDS_P2;PMS_P1;PMS_P2;Temp;Humidity;BMP_temperature;BMP_pressure;BME280_temperature;BME280_humidity;BME280_pressure;Samples;Min_cycle;Max_cycle;Signal;HPM_P1;HPM_P2
2023/04/28 00:00:06;;;;;;;21.25;10.50;;;;;;;16.52;96.02;96294.28;4944584;28;20094;-56
2023/04/28 00:02:34;;;;;;;13.20;6.85;;;;;;;16.37;96.67;96292.44;4944284;28;20656;-50
2023/04/28 00:05:05;;;;;;;14.98;8.60;;;;;;;16.74;94.52;96289.84;4945864;28;20142;-54
2023/04/28 00:07:34;;;;;;;22.45;10.50;;;;;;;16.35;95.89;96296.31;4943567;28;20897;-51
2023/04/28 00:10:02;;;;;;;18.30;10.10;;;;;;;16.30;95.49;96285.38;4944845;28;20087;-56
2023/04/28 00:12:30;;;;;;;22.17;11.65;;;;;;;16.01;100.00;96281.72;4945049;28;20094;-57
2023/04/28 00:14:59;;;;;;;15.52;9.40;;;;;;;16.17;98.73;96274.56;4945016;28;20090;-54
2023/04/28 00:17:27;;;;;;;16.20;8.90;;;;;;;16.45;92.55;96272.91;4942070;28;20082;-58
2023/04/28 00:19:56;;;;;;;19.50;9.80;;;;;;;16.50;93.40;96267.03;4945037;28;20090;-59
2023/04/28 00:22:26;;;;;;;20.90;10.95;;;;;;;16.62;97.60;96265.53;4944263;28;20079;-54
2023/04/28 00:24:54;;;;;;;16.05;9.00;;;;;;;16.31;96.80;96265.75;4949326;28;20095;-60
2023/04/28 00:27:22;;;;;;;21.70;10.75;;;;;;;16.16;99.06;96268.44;4942008;28;20102;-55
2023/04/28 00:29:51;;;;;;;21.10;11.93;;;;;;;16.22;97.49;96262.38;4940066;28;20078;-55
2023/04/28 00:32:20;;;;;;;18.17;9.30;;;;;;;16.23;94.80;96276.50;4937167;28;20087;-59
2023/04/28 00:34:48;;;;;;;16.55;8.52;;;;;;;16.18;97.96;96269.06;4926367;28;20083;-54
2023/04/28 00:37:16;;;;;;;21.70;10.18;;;;;;;16.13;100.00;96271.44;4944123;28;20089;-53
2023/04/28 00:39:46;;;;;;;18.85;9.82;;;;;;;16.44;99.33;96259.78;4944401;28;20083;-52
2023/04/28 00:42:15;;;;;;;19.45;9.38;;;;;;;16.20;98.76;96259.06;4940161;28;20094;-55
2023/04/28 00:44:43;;;;;;;23.23;12.05;;;;;;;16.17;98.37;96256.75;4946006;28;22375;-55
2023/04/28 00:47:11;;;;;;;23.50;11.43;;;;;;;16.13;98.43;96255.50;4942996;28;20467;-54
2023/04/28 00:49:40;;;;;;;29.88;14.63;;;;;;;16.12;98.88;96253.84;4941907;28;20102;-60
2023/04/28 00:52:08;;;;;;;31.65;16.55;;;;;;;16.10;99.44;96254.03;4941715;28;20158;-51
2023/04/28 00:54:37;;;;;;;20.92;10.65;;;;;;;16.27;100.00;96259.97;4947276;28;20082;-58
2023/04/28 00:57:07;;;;;;;25.70;11.43;;;;;;;16.37;100.00;96251.72;4944824;28;20094;-53
2023/04/28 00:59:35;;;;;;;27.00;12.27;;;;;;;16.02;100.00;96251.47;4941571;28;20170;-55
2023/04/28 01:02:05;;;;;;;19.55;10.70;;;;;;;15.52;100.00;96260.06;4945933;28;20173;-54
2023/04/28 01:04:33;;;;;;;20.55;10.43;;;;;;;15.90;100.00;96248.44;4948328;28;20090;-55
2023/04/28 01:07:02;;;;;;;19.80;10.70;;;;;;;16.21;100.00;96250.09;4930839;28;20091;-58
2023/04/28 01:09:31;;;;;;;18.02;9.38;;;;;;;16.22;100.00;96245.59;4942426;28;20086;-56
2023/04/28 01:11:59;;;;;;;21.75;12.15;;;;;;;16.28;100.00;96239.53;4941561;28;20097;-59
2023/04/28 01:14:29;;;;;;;13.18;7.30;;;;;;;16.79;97.50;96237.69;4938757;28;20585;-60
2023/04/28 01:16:57;;;;;;;13.90;8.13;;;;;;;16.65;94.61;96241.19;4945780;28;20086;-57
2023/04/28 01:19:26;;;;;;;11.43;7.68;;;;;;;16.69;94.23;96234.50;4943756;28;20526;-58
2023/04/28 01:21:55;;;;;;;13.25;7.88;;;;;;;16.73;93.47;96222.44;4940233;28;20095;-60
2023/04/28 01:24:24;;;;;;;13.63;7.25;;;;;;;16.91;96.03;96224.69;4944348;28;20082;-55
2023/04/28 01:26:53;;;;;;;12.10;7.90;;;;;;;16.83;93.79;96220.31;4939431;28;20102;-54
2023/04/28 01:29:21;;;;;;;18.02;8.10;;;;;;;16.66;94.69;96216.22;4943966;28;20071;-58
2023/04/28 01:31:49;;;;;;;12.65;7.35;;;;;;;16.19;98.77;96220.16;4943476;28;20108;-61
2023/04/28 01:34:18;;;;;;;15.45;7.05;;;;;;;16.41;97.05;96212.25;4944761;28;20087;-55
2023/04/28 01:36:47;;;;;;;12.77;7.53;;;;;;;16.77;94.01;96205.09;4948058;28;20082;-57
2023/04/28 01:39:16;;;;;;;11.57;7.20;;;;;;;16.64;95.83;96204.94;4943996;28;20054;-57
2023/04/28 01:41:45;;;;;;;11.68;7.22;;;;;;;16.91;93.66;96203.38;4945828;28;20090;-58
2023/04/28 01:44:14;;;;;;;16.33;8.43;;;;;;;16.87;91.49;96206.63;4948645;28;20098;-55
2023/04/28 01:46:42;;;;;;;13.63;7.97;;;;;;;16.89;88.80;96210.72;4946958;28;20486;-60
2023/04/28 01:49:11;;;;;;;14.38;7.35;;;;;;;16.92;91.42;96213.03;4944932;28;20078;-56
2023/04/28 01:51:40;;;;;;;13.95;8.35;;;;;;;17.03;91.60;96217.00;4944606;28;20079;-59
2023/04/28 01:54:08;;;;;;;11.70;7.40;;;;;;;17.09;90.01;96227.72;4944672;28;20684;-54
2023/04/28 01:56:37;;;;;;;10.32;6.30;;;;;;;16.83;100.00;96227.50;4946211;28;20086;-59
2023/04/28 01:59:07;;;;;;;11.13;6.70;;;;;;;16.76;100.00;96232.75;4948999;28;20071;-58
2023/04/28 02:01:35;;;;;;;16.52;7.72;;;;;;;16.90;94.70;96228.38;4951978;28;20086;-56
2023/04/28 02:04:03;;;;;;;13.35;7.82;;;;;;;16.94;91.57;96236.81;4951285;28;20195;-59
2023/04/28 02:06:31;;;;;;;12.98;7.85;;;;;;;16.95;90.87;96238.47;4947153;28;20125;-56
2023/04/28 02:09:00;;;;;;;13.43;7.70;;;;;;;16.99;89.98;96223.75;4944601;28;20492;-56
2023/04/28 02:11:28;;;;;;;16.38;8.23;;;;;;;16.33;97.08;96229.97;4947747;28;20795;-55
2023/04/28 02:13:56;;;;;;;15.15;8.85;;;;;;;16.76;94.97;96222.09;4949629;28;20083;-57
2023/04/28 02:16:26;;;;;;;13.80;7.95;;;;;;;16.92;93.28;96225.50;4942918;28;20109;-60
2023/04/28 02:18:55;;;;;;;14.40;9.07;;;;;;;16.88;91.14;96221.59;4943581;28;20081;-58
2023/04/28 02:21:25;;;;;;;16.65;8.82;;;;;;;16.84;91.39;96219.31;4930121;28;20082;-56
2023/04/28 02:23:53;;;;;;;16.30;8.90;;;;;;;16.94;89.68;96212.84;4950573;28;20158;-53
2023/04/28 02:26:21;;;;;;;17.10;8.88;;;;;;;16.72;90.70;96210.13;4946908;28;20094;-57
2023/04/28 02:28:50;;;;;;;14.60;8.10;;;;;;;16.82;91.43;96209.84;4943942;28;20094;-51
2023/04/28 02:31:18;;;;;;;16.52;9.30;;;;;;;16.92;90.76;96213.03;4946076;28;20090;-61
2023/04/28 02:33:48;;;;;;;16.65;8.60;;;;;;;17.08;92.36;96203.97;4943606;28;20090;-59
2023/04/28 02:36:16;;;;;;;17.20;8.95;;;;;;;16.96;90.99;96203.63;4941354;28;20143;-58
2023/04/28 02:38:45;;;;;;;15.50;9.02;;;;;;;16.94;94.17;96211.00;4940334;28;20087;-58
2023/04/28 02:41:14;;;;;;;15.20;9.00;;;;;;;16.70;97.59;96206.84;4946492;28;20090;-53
2023/04/28 02:43:42;;;;;;;14.00;8.63;;;;;;;16.90;97.55;96192.94;4947099;28;20081;-55
2023/04/28 02:46:11;;;;;;;15.70;8.75;;;;;;;16.48;100.00;96198.00;4943729;28;20087;-58
2023/04/28 02:48:40;;;;;;;16.85;8.52;;;;;;;16.68;99.09;96198.19;4949657;28;20083;-58
2023/04/28 02:51:10;;;;;;;16.52;8.88;;;;;;;17.06;100.00;96204.13;4947149;28;20142;-58
2023/04/28 02:53:39;;;;;;;18.23;9.20;;;;;;;16.85;98.96;96204.97;4948294;28;20118;-59
2023/04/28 02:56:07;;;;;;;16.67;9.95;;;;;;;16.79;100.00;96200.41;4945049;28;20086;-57
2023/04/28 02:58:36;;;;;;;15.70;8.45;;;;;;;16.59;100.00;96199.34;4947668;28;20090;-51
2023/04/28 03:01:04;;;;;;;13.95;7.95;;;;;;;16.06;100.00;96199.53;4942899;28;20142;-53
2023/04/28 03:03:33;;;;;;;12.18;7.25;;;;;;;15.56;100.00;96197.59;4946478;28;20063;-52
2023/04/28 03:06:02;;;;;;;13.30;7.50;;;;;;;16.02;100.00;96190.28;4949941;28;20079;-59
2023/04/28 03:08:32;;;;;;;13.18;7.47;;;;;;;16.56;100.00;96191.75;4948415;28;20090;-57
2023/04/28 03:11:00;;;;;;;13.05;7.90;;;;;;;16.73;100.00;96200.31;4944905;28;20483;-56
2023/04/28 03:13:29;;;;;;;19.13;9.65;;;;;;;16.92;100.00;96198.88;4945154;28;20102;-57
2023/04/28 03:15:57;;;;;;;13.32;7.30;;;;;;;16.82;100.00;96204.53;4949421;28;20157;-55
2023/04/28 03:18:25;;;;;;;15.50;8.60;;;;;;;16.80;100.00;96191.41;4942599;28;20694;-58
2023/04/28 03:20:54;;;;;;;15.13;8.35;;;;;;;16.91;100.00;96186.59;4946736;28;20082;-58
2023/04/28 03:23:23;;;;;;;12.65;7.22;;;;;;;16.96;100.00;96182.31;4947866;28;20081;-54
2023/04/28 03:25:52;;;;;;;15.75;7.90;;;;;;;17.06;100.00;96179.34;4943179;28;20096;-56
2023/04/28 03:28:21;;;;;;;16.00;9.50;;;;;;;17.03;100.00;96174.38;4942661;28;20134;-60
2023/04/28 03:30:49;;;;;;;13.23;8.02;;;;;;;16.66;100.00;96172.81;4947947;28;20083;-58
2023/04/28 03:33:17;;;;;;;15.90;8.05;;;;;;;16.20;100.00;96159.81;4946301;28;20305;-60
2023/04/28 03:35:46;;;;;;;13.85;7.55;;;;;;;16.49;100.00;96156.25;4945035;28;20468;-61
2023/04/28 03:38:15;;;;;;;12.73;4.90;;;;;;;16.73;100.00;96160.38;4941920;28;20652;-58
2023/04/28 03:40:43;;;;;;;9.52;5.13;;;;;;;16.25;100.00;96173.38;4949858;28;20537;-57
2023/04/28 03:43:13;;;;;;;12.95;8.00;;;;;;;16.72;100.00;96167.50;4945509;28;20464;-59
2023/04/28 03:45:41;;;;;;;16.40;8.80;;;;;;;16.26;100.00;96170.53;4946189;28;20079;-55
2023/04/28 03:48:10;;;;;;;12.48;7.38;;;;;;;16.43;100.00;96176.44;4945619;28;20098;-56
2023/04/28 03:50:39;;;;;;;13.05;7.80;;;;;;;16.63;100.00;96179.31;4940376;28;20079;-53
2023/04/28 03:53:14;;;;;;;14.02;7.93;;;;;;;16.81;100.00;96195.72;4944814;28;20087;-59
2023/04/28 03:55:42;;;;;;;16.00;9.00;;;;;;;16.85;100.00;96190.81;4942141;28;20095;-55
2023/04/28 03:58:10;;;;;;;17.50;9.63;;;;;;;16.65;100.00;96198.56;4941623;28;20091;-54
2023/04/28 04:00:40;;;;;;;21.13;11.02;;;;;;;16.04;100.00;96203.41;4942193;28;20526;-50
2023/04/28 04:03:09;;;;;;;22.17;10.73;;;;;;;16.34;100.00;96189.06;4941329;28;20098;-56
2023/04/28 04:05:39;;;;;;;25.38;11.95;;;;;;;16.80;100.00;96188.75;4947412;28;20799;-56
2023/04/28 04:08:08;;;;;;;19.90;10.88;;;;;;;17.02;100.00;96180.75;4950422;28;20087;-58
2023/04/28 04:10:36;;;;;;;16.25;7.68;;;;;;;17.26;100.00;96180.31;4944572;28;21298;-57
2023/04/28 04:13:04;;;;;;;17.52;9.43;;;;;;;16.91;100.00;96182.09;4942249;28;20489;-55
2023/04/28 04:15:33;;;;;;;22.77;10.95;;;;;;;16.56;100.00;96195.22;4941361;28;20093;-59
2023/04/28 04:18:02;;;;;;;17.85;9.65;;;;;;;17.08;100.00;96191.44;4940435;28;20094;-56
2023/04/28 04:20:31;;;;;;;18.85;10.23;;;;;;;16.25;100.00;96192.00;4939502;28;20083;-59
2023/04/28 04:23:00;;;;;;;16.75;9.57;;;;;;;16.23;100.00;96184.19;4941899;28;20087;-54
2023/04/28 04:25:28;;;;;;;23.02;11.23;;;;;;;16.44;100.00;96196.72;4947903;28;20091;-56
2023/04/28 04:27:56;;;;;;;20.70;9.43;;;;;;;17.16;100.00;96189.66;4942489;28;20090;-59
2023/04/28 04:30:25;;;;;;;20.80;11.30;;;;;;;16.97;100.00;96184.00;4938433;28;20486;-56
2023/04/28 04:32:53;;;;;;;23.10;11.68;;;;;;;16.67;100.00;96185.09;4941217;28;20078;-55
2023/04/28 04:35:23;;;;;;;17.52;9.95;;;;;;;16.16;100.00;96182.47;4942426;28;20547;-55
2023/04/28 04:37:51;;;;;;;18.40;10.57;;;;;;;16.16;100.00;96188.63;4940873;28;20074;-54
2023/04/28 04:40:19;;;;;;;19.35;9.82;;;;;;;17.05;100.00;96180.34;4943347;28;20127;-58
2023/04/28 04:42:48;;;;;;;21.90;10.60;;;;;;;17.18;100.00;96161.00;4939880;28;20102;-57
2023/04/28 04:45:16;;;;;;;22.98;12.77;;;;;;;17.72;100.00;96165.66;4940633;28;20097;-57
2023/04/28 04:47:44;;;;;;;14.98;8.10;;;;;;;16.79;100.00;96179.13;4947025;28;20079;-57
2023/04/28 04:50:13;;;;;;;11.73;7.18;;;;;;;17.07;100.00;96173.00;4939556;28;20586;-58
2023/04/28 04:52:43;;;;;;;15.57;7.43;;;;;;;17.07;100.00;96165.03;4937990;28;20094;-56
2023/04/28 04:55:11;;;;;;;10.57;6.57;;;;;;;16.20;100.00;96154.47;4946423;28;20091;-53
2023/04/28 04:57:39;;;;;;;13.55;7.85;;;;;;;16.31;100.00;96148.66;4949960;28;20535;-60
2023/04/28 05:00:09;;;;;;;11.05;6.15;;;;;;;16.40;100.00;96144.88;4939072;28;20106;-55
2023/04/28 05:02:37;;;;;;;8.85;5.78;;;;;;;16.69;100.00;96133.31;4940019;28;20078;-58
2023/04/28 05:05:07;;;;;;;8.85;6.00;;;;;;;16.71;100.00;96131.25;4943653;28;20094;-61
2023/04/28 05:07:49;;;;;;;9.40;5.80;;;;;;;17.49;100.00;96126.78;4942811;28;20094;-54
2023/04/28 05:10:17;;;;;;;11.13;6.23;;;;;;;17.86;100.00;96135.41;4944020;28;20094;-56
2023/04/28 05:12:46;;;;;;;10.15;5.80;;;;;;;18.07;100.00;96129.13;4939913;28;20574;-56
2023/04/28 05:15:16;;;;;;;9.43;5.10;;;;;;;18.36;100.00;96128.00;4945586;28;20082;-55
2023/04/28 05:17:45;;;;;;;10.23;4.65;;;;;;;18.67;100.00;96135.44;4952643;28;20083;-56
2023/04/28 05:20:13;;;;;;;7.82;4.40;;;;;;;18.56;100.00;96136.06;4949851;28;20082;-54
2023/04/28 05:22:42;;;;;;;10.32;5.60;;;;;;;18.40;100.00;96145.25;4947263;28;20515;-55
2023/04/28 05:25:11;;;;;;;6.30;4.20;;;;;;;17.99;100.00;96148.78;4946222;28;20094;-55
2023/04/28 05:27:40;;;;;;;10.63;5.53;;;;;;;18.38;100.00;96154.50;4954752;28;20086;-59
2023/04/28 05:30:09;;;;;;;7.32;4.40;;;;;;;18.29;100.00;96161.03;4946417;28;20488;-60
2023/04/28 05:32:38;;;;;;;8.57;4.97;;;;;;;18.52;100.00;96156.19;4954749;28;20094;-53
2023/04/28 05:35:08;;;;;;;5.63;4.05;;;;;;;18.42;100.00;96151.22;4948615;28;20476;-59
2023/04/28 05:37:37;;;;;;;5.57;3.78;;;;;;;18.79;100.00;96153.56;4943193;28;20075;-57
2023/04/28 05:40:06;;;;;;;4.88;3.72;;;;;;;18.41;100.00;96164.75;4948377;28;20093;-55
2023/04/28 05:42:36;;;;;;;5.38;3.33;;;;;;;18.74;100.00;96162.19;4948217;28;20086;-57
2023/04/28 05:45:06;;;;;;;6.43;3.50;;;;;;;18.70;100.00;96164.44;4945925;28;20086;-58
2023/04/28 05:47:35;;;;;;;7.63;3.25;;;;;;;18.61;100.00;96154.94;4945423;28;20513;-57
2023/04/28 05:50:04;;;;;;;3.65;2.80;;;;;;;19.19;100.00;96143.72;4943974;28;20094;-59
2023/04/28 05:52:32;;;;;;;4.40;2.60;;;;;;;19.35;100.00;96140.63;4946085;28;20086;-56
2023/04/28 05:55:01;;;;;;;4.15;2.70;;;;;;;19.31;100.00;96143.94;4948700;28;20073;-55
2023/04/28 05:57:29;;;;;;;4.88;2.80;;;;;;;19.32;100.00;96143.72;4946514;28;20546;-56
2023/04/28 06:00:12;;;;;;;6.00;2.80;;;;;;;19.63;100.00;96140.41;4945703;28;20082;-55
2023/04/28 06:02:40;;;;;;;4.82;2.80;;;;;;;19.55;100.00;96145.16;4945681;28;20484;-57
2023/04/28 06:05:09;;;;;;;5.25;2.70;;;;;;;19.71;100.00;96150.06;4954108;28;20094;-52
2023/04/28 06:07:37;;;;;;;5.65;2.63;;;;;;;18.73;100.00;96153.38;4952143;28;20746;-57
2023/04/28 06:10:07;;;;;;;4.72;3.00;;;;;;;19.21;100.00;96147.03;4953245;28;20083;-56
2023/04/28 06:12:35;;;;;;;3.10;2.30;;;;;;;18.69;100.00;96146.75;4953309;28;20090;-55
2023/04/28 06:15:05;;;;;;;7.10;3.05;;;;;;;19.14;100.00;96147.03;4954896;28;20085;-53
2023/04/28 06:17:35;;;;;;;4.95;2.60;;;;;;;19.15;100.00;96147.84;4951622;28;20079;-54
2023/04/28 06:20:04;;;;;;;3.90;2.57;;;;;;;19.10;100.00;96150.34;4947096;28;20083;-57
2023/04/28 06:22:32;;;;;;;5.25;3.22;;;;;;;19.13;100.00;96150.75;4952836;28;20527;-60
2023/04/28 06:25:00;;;;;;;8.52;3.25;;;;;;;17.91;100.00;96156.16;4950425;28;20085;-52
2023/04/28 06:27:31;;;;;;;3.67;2.60;;;;;;;17.92;100.00;96171.13;4956683;28;20082;-56
2023/04/28 06:29:59;;;;;;;5.60;2.95;;;;;;;18.27;100.00;96186.09;4946307;28;20502;-53
2023/04/28 06:32:28;;;;;;;3.33;2.55;;;;;;;17.68;100.00;96185.75;4947133;28;20075;-55
2023/04/28 06:34:58;;;;;;;4.18;2.92;;;;;;;18.30;100.00;96178.69;4943627;28;20091;-55
2023/04/28 06:37:26;;;;;;;4.78;3.00;;;;;;;18.35;100.00;96163.72;4940541;28;20500;-53
2023/04/28 06:39:54;;;;;;;6.03;3.55;;;;;;;18.39;100.00;96148.13;4942209;28;20204;-58
2023/04/28 06:42:23;;;;;;;7.30;4.10;;;;;;;17.26;100.00;96144.84;4954202;28;20086;-55
2023/04/28 06:44:53;;;;;;;6.68;3.50;;;;;;;18.62;100.00;96142.44;4955597;28;20086;-58
2023/04/28 06:47:22;;;;;;;5.38;3.00;;;;;;;18.83;100.00;96134.28;4951393;28;20090;-56
2023/04/28 06:49:50;;;;;;;12.45;5.35;;;;;;;18.80;100.00;96141.88;4958683;28;20070;-56
2023/04/28 06:52:21;;;;;;;7.20;3.40;;;;;;;19.38;100.00;96142.91;4952448;28;20098;-52
2023/04/28 06:55:00;;;;;;;3.95;2.78;;;;;;;19.03;100.00;96144.97;4949836;28;20071;-50
2023/04/28 06:57:28;;;;;;;5.13;3.10;;;;;;;19.83;100.00;96137.69;4951542;28;20074;-54
2023/04/28 06:59:56;;;;;;;6.47;2.88;;;;;;;20.23;100.00;96132.16;4955163;28;20074;-54
2023/04/28 07:02:25;;;;;;;5.07;2.95;;;;;;;20.52;100.00;96143.41;4952532;28;20093;-53
2023/04/28 07:04:54;;;;;;;6.15;2.70;;;;;;;20.37;100.00;96135.59;4949640;28;21672;-56
2023/04/28 07:07:23;;;;;;;5.10;2.97;;;;;;;20.29;100.00;96135.88;4953849;28;20090;-60
2023/04/28 07:09:52;;;;;;;4.32;2.78;;;;;;;20.04;100.00;96141.94;4951428;28;20093;-53
2023/04/28 07:12:21;;;;;;;4.68;2.63;;;;;;;20.25;100.00;96132.78;4951364;28;20518;-53
2023/04/28 07:14:50;;;;;;;3.63;2.60;;;;;;;20.00;100.00;96135.38;4960880;28;20081;-51
2023/04/28 07:17:18;;;;;;;5.18;2.80;;;;;;;19.99;100.00;96135.56;4946424;28;20094;-56
2023/04/28 07:19:48;;;;;;;4.75;2.45;;;;;;;19.91;100.00;96136.63;4944414;28;20078;-55
2023/04/28 07:22:17;;;;;;;4.70;3.05;;;;;;;20.26;100.00;96138.97;4950503;28;20089;-57
2023/04/28 07:24:47;;;;;;;5.55;2.70;;;;;;;20.33;100.00;96140.56;4947640;28;20094;-57
2023/04/28 07:27:16;;;;;;;4.53;2.70;;;;;;;20.60;100.00;96138.59;4947105;28;20082;-56
2023/04/28 07:29:44;;;;;;;5.03;2.30;;;;;;;20.74;100.00;96135.84;4948522;28;20500;-53
2023/04/28 07:32:12;;;;;;;5.50;2.35;;;;;;;20.64;100.00;96133.63;4948424;28;20566;-52
2023/04/28 07:34:41;;;;;;;3.05;2.05;;;;;;;20.78;100.00;96137.03;4944959;28;20094;-54
2023/04/28 07:37:10;;;;;;;4.25;2.55;;;;;;;20.93;100.00;96144.78;4949471;28;20094;-56
2023/04/28 07:39:40;;;;;;;3.25;2.33;;;;;;;20.56;100.00;96142.75;4948017;28;20085;-56
2023/04/28 07:42:10;;;;;;;8.18;2.55;;;;;;;20.53;100.00;96150.41;4947494;28;20090;-57
2023/04/28 07:44:38;;;;;;;4.00;2.28;;;;;;;19.90;100.00;96156.41;4951164;28;20071;-53
2023/04/28 07:47:06;;;;;;;3.50;2.45;;;;;;;19.91;100.00;96158.88;4947090;28;20087;-55
2023/04/28 07:49:35;;;;;;;3.05;2.35;;;;;;;19.68;100.00;96158.50;4946946;28;20092;-57
2023/04/28 07:52:03;;;;;;;3.72;2.38;;;;;;;19.60;100.00;96170.22;4945300;28;20083;-58
2023/04/28 07:54:32;;;;;;;4.70;2.75;;;;;;;20.03;100.00;96172.44;4950150;28;20075;-52
2023/04/28 07:57:05;;;;;;;4.90;3.03;;;;;;;20.32;100.00;96165.72;4945532;28;20090;-51
2023/04/28 07:59:35;;;;;;;4.45;3.03;;;;;;;20.59;100.00;96155.72;4949288;28;20097;-52
2023/04/28 08:02:03;;;;;;;5.75;3.10;;;;;;;19.67;100.00;96152.34;4954277;28;20483;-55
2023/04/28 08:04:33;;;;;;;6.45;3.40;;;;;;;19.26;100.00;96139.19;4949670;28;20087;-51
2023/04/28 08:07:02;;;;;;;22.85;8.45;;;;;;;19.11;100.00;96143.94;4948604;28;20071;-53
2023/04/28 08:09:31;;;;;;;5.05;3.10;;;;;;;19.10;100.00;96145.81;4950061;28;20083;-52
2023/04/28 08:11:59;;;;;;;34.42;13.15;;;;;;;19.01;100.00;96143.53;4945636;28;20531;-58
2023/04/28 08:14:28;;;;;;;8.65;4.20;;;;;;;19.34;100.00;96135.47;4945605;28;20149;-54
2023/04/28 08:16:58;;;;;;;6.72;3.47;;;;;;;19.52;100.00;96127.66;4948690;28;20070;-51
2023/04/28 08:19:26;;;;;;;9.55;6.43;;;;;;;19.77;100.00;96121.66;4945185;28;20467;-50
2023/04/28 08:21:54;;;;;;;23.35;6.20;;;;;;;19.17;100.00;96125.25;4945019;28;20669;-55
2023/04/28 08:24:23;;;;;;;18.02;6.97;;;;;;;19.51;100.00;96115.31;4951660;28;20087;-52
2023/04/28 08:26:51;;;;;;;7.13;2.80;;;;;;;18.87;100.00;96116.00;4952189;28;20086;-53
2023/04/28 08:29:19;;;;;;;5.57;2.80;;;;;;;19.36;100.00;96109.38;4951396;28;20094;-53
2023/04/28 08:31:48;;;;;;;4.72;2.70;;;;;;;19.45;100.00;96105.47;4942620;28;20086;-57
2023/04/28 08:34:17;;;;;;;5.57;2.58;;;;;;;19.74;100.00;96104.16;4953483;28;20096;-54
2023/04/28 08:36:46;;;;;;;3.80;2.80;;;;;;;20.83;100.00;96105.06;4965781;28;20093;-53
2023/04/28 08:39:14;;;;;;;3.47;2.63;;;;;;;21.16;100.00;96102.09;4954153;28;20110;-56
2023/04/28 08:41:43;;;;;;;2.67;2.00;;;;;;;20.92;100.00;96111.81;4944603;28;20569;-52
2023/04/28 08:44:11;;;;;;;4.05;2.50;;;;;;;21.82;100.00;96097.97;4949359;28;20495;-52
2023/04/28 08:46:41;;;;;;;3.08;2.15;;;;;;;22.00;100.00;96092.59;4946243;28;20091;-50
2023/04/28 08:49:15;;;;;;;3.05;2.40;;;;;;;22.36;100.00;96090.91;4947114;28;20077;-50
2023/04/28 08:51:47;;;;;;;4.75;2.10;;;;;;;22.75;100.00;96094.91;4943341;28;20079;-52
2023/04/28 08:54:16;;;;;;;5.60;2.20;;;;;;;22.80;100.00;96085.31;4952269;28;20070;-51
2023/04/28 08:56:54;;;;;;;4.20;2.20;;;;;;;22.45;100.00;96080.66;4949471;28;20079;-47
2023/04/28 08:59:22;;;;;;;2.65;1.80;;;;;;;23.00;100.00;96079.66;4950102;28;20085;-51
2023/04/28 09:01:51;;;;;;;3.35;1.92;;;;;;;22.57;100.00;96081.50;4944782;28;20090;-54
2023/04/28 09:04:20;;;;;;;3.47;1.92;;;;;;;22.62;100.00;96078.16;4944885;28;20081;-52
2023/04/28 09:06:50;;;;;;;4.97;1.70;;;;;;;22.55;100.00;96075.56;4945435;28;20075;-57
2023/04/28 09:09:23;;;;;;;4.03;1.40;;;;;;;22.10;100.00;96083.19;4954674;28;21019;-54
2023/04/28 09:11:54;;;;;;;1.92;1.33;;;;;;;21.79;100.00;96080.44;4960349;28;20517;-49
2023/04/28 09:14:22;;;;;;;2.17;1.40;;;;;;;21.33;100.00;96076.38;4951863;28;20465;-53
2023/04/28 09:16:51;;;;;;;1.67;1.20;;;;;;;21.88;100.00;96074.75;4954057;28;20098;-49
2023/04/28 09:19:20;;;;;;;2.63;1.25;;;;;;;21.97;100.00;96076.09;4952606;28;20078;-50
2023/04/28 09:21:54;;;;;;;3.25;1.77;;;;;;;22.40;100.00;96067.94;4956464;28;20083;-52
2023/04/28 09:24:26;;;;;;;2.90;1.83;;;;;;;21.53;100.00;96062.78;4957089;28;20440;-51
2023/04/28 09:26:55;;;;;;;2.50;1.40;;;;;;;21.51;100.00;96059.50;4949748;28;20083;-54
2023/04/28 09:29:23;;;;;;;3.15;1.60;;;;;;;21.41;100.00;96056.53;4955156;28;20089;-48
2023/04/28 09:31:52;;;;;;;2.40;1.10;;;;;;;22.12;100.00;96059.59;4952427;28;20086;-54
2023/04/28 09:34:20;;;;;;;3.47;1.30;;;;;;;22.72;100.00;96051.53;4954146;28;20082;-54
2023/04/28 09:36:49;;;;;;;2.38;1.08;;;;;;;22.07;100.00;96057.59;4953075;28;20478;-59
2023/04/28 09:39:30;;;;;;;1.80;1.30;;;;;;;22.54;100.00;96054.28;4955086;28;20082;-53
2023/04/28 09:42:02;;;;;;;3.45;1.27;;;;;;;21.60;100.00;96053.84;4952558;28;20082;-54
2023/04/28 09:44:31;;;;;;;4.50;1.60;;;;;;;22.74;100.00;96049.41;4957574;28;20078;-53
2023/04/28 09:47:00;;;;;;;4.30;1.50;;;;;;;22.52;100.00;96049.94;4955889;28;20086;-55
2023/04/28 09:49:28;;;;;;;2.53;1.50;;;;;;;21.53;100.00;96045.84;4949112;28;20095;-50
2023/04/28 09:52:12;;;;;;;2.17;1.60;;;;;;;22.70;100.00;96051.75;4955111;28;20745;-51
2023/04/28 09:54:42;;;;;;;2.50;1.58;;;;;;;22.46;100.00;96061.63;4947598;28;20071;-55
2023/04/28 09:57:10;;;;;;;3.80;1.43;;;;;;;21.55;100.00;96047.28;4955196;28;20087;-48
2023/04/28 09:59:39;;;;;;;2.47;1.55;;;;;;;21.92;100.00;96052.63;4958715;28;20082;-54
2023/04/28 10:02:07;;;;;;;2.80;1.50;;;;;;;21.73;100.00;96057.19;4959070;28;20500;-59
2023/04/28 10:04:55;;;;;;;2.03;1.27;;;;;;;21.91;100.00;96059.03;4952997;28;20507;-51
2023/04/28 10:07:24;;;;;;;2.80;1.30;;;;;;;21.19;100.00;96057.94;4952770;28;20554;-50
2023/04/28 10:09:55;;;;;;;1.98;1.20;;;;;;;21.09;100.00;96063.81;4958888;28;20083;-53
2023/04/28 10:12:23;;;;;;;;;;;;;;;21.66;100.00;96064.50;4956941;28;20543;-53
2023/04/28 10:14:53;;;;;;;3.47;1.38;;;;;;;21.30;100.00;96066.09;4962927;28;19949;-54
2023/04/28 10:17:24;;;;;;;2.72;1.10;;;;;;;20.75;100.00;96076.69;4954731;28;20083;-48
2023/04/28 10:19:53;;;;;;;3.42;1.50;;;;;;;21.33;100.00;96064.81;4949868;28;20580;-56
2023/04/28 10:22:33;;;;;;;4.32;2.13;;;;;;;21.15;100.00;96059.44;4956697;28;20073;-57
2023/04/28 10:25:12;;;;;;;4.40;2.13;;;;;;;21.49;100.00;96061.59;4953058;28;20074;-55
2023/04/28 10:27:42;;;;;;;2.85;1.50;;;;;;;21.07;100.00;96058.66;4958942;28;20081;-50
2023/04/28 10:30:12;;;;;;;2.43;1.50;;;;;;;20.71;100.00;96067.41;4955877;28;20090;-53
2023/04/28 10:33:23;;;;;;;3.10;1.48;;;;;;;21.09;100.00;96061.97;4957474;28;20509;-51
2023/04/28 10:35:52;;;;;;;3.28;1.73;;;;;;;20.46;100.00;96072.72;4955697;28;20090;-52
2023/04/28 10:38:21;;;;;;;3.17;1.40;;;;;;;21.07;100.00;96061.34;4958315;28;20074;-54
2023/04/28 10:40:52;;;;;;;3.40;1.60;;;;;;;20.91;100.00;96063.78;4956157;28;20066;-51
2023/04/28 10:43:36;;;;;;;3.05;1.55;;;;;;;21.24;100.00;96056.25;4956180;28;20089;-56
2023/04/28 10:46:08;;;;;;;4.97;1.40;;;;;;;20.78;100.00;96052.09;4958344;28;20527;-57
2023/04/28 10:48:56;;;;;;;4.63;1.60;;;;;;;21.39;100.00;96042.50;4949930;28;20079;-57
2023/04/28 10:51:29;;;;;;;4.75;2.03;;;;;;;21.23;100.00;96051.09;4956618;28;20074;-53
2023/04/28 10:54:26;;;;;;;3.88;2.30;;;;;;;21.12;100.00;96049.16;4955510;28;20085;-58
2023/04/28 10:57:21;;;;;;;3.00;1.70;;;;;;;21.90;100.00;96046.66;4964375;28;20074;-57
2023/04/28 10:59:50;;;;;;;3.03;1.55;;;;;;;21.54;100.00;96037.59;4953994;28;20451;-49
2023/04/28 11:02:39;;;;;;;2.53;1.48;;;;;;;21.37;100.00;96049.97;4951971;28;20099;-55
2023/04/28 11:05:17;;;;;;;2.53;1.20;;;;;;;21.98;100.00;96040.16;4955292;28;20531;-54
2023/04/28 11:08:32;;;;;;;4.82;1.40;;;;;;;21.30;100.00;96047.31;4955220;28;20094;-59
2023/04/28 11:11:23;;;;;;;3.45;1.50;;;;;;;22.25;100.00;96043.31;4950693;28;20083;-54
2023/04/28 11:13:54;;;;;;;2.30;1.50;;;;;;;21.78;100.00;96053.81;4955503;28;20086;-50
2023/04/28 11:16:24;;;;;;;4.60;2.13;;;;;;;21.32;100.00;96049.78;4956914;28;20079;-54
2023/04/28 11:18:54;;;;;;;;;;;;;;;21.61;100.00;96053.63;4960048;28;20078;-55
2023/04/28 11:21:24;;;;;;;6.28;1.23;;;;;;;21.26;100.00;96058.69;4953736;28;19980;-55
2023/04/28 11:23:52;;;;;;;1.83;1.05;;;;;;;21.50;100.00;96054.34;4948966;28;20089;-53
2023/04/28 11:26:22;;;;;;;2.38;0.93;;;;;;;21.22;100.00;96060.19;4954863;28;20082;-54
2023/04/28 11:28:53;;;;;;;6.47;1.10;;;;;;;20.80;100.00;96058.06;4952992;28;20079;-57
2023/04/28 11:31:23;;;;;;;1.80;1.00;;;;;;;20.95;100.00;96057.75;4958265;28;20099;-50
2023/04/28 11:33:54;;;;;;;2.92;1.27;;;;;;;21.36;100.00;96068.94;4950629;28;20086;-50